weather.gov     
National Weather Service

Terminal Aerodrome Forecast
NWS Homepage
This page is being discontinued on March 12, 2014.
The same data is available at this site. Please update your bookmarks.
Thank you, and we apologize for the inconvenience.
Please send an email to SR-SRH.Webmaster@noaa.gov with any concerns.


Current Version
Previous Version:    01  02  03  04  05  06  07  08  09  10  11  12  13  14  15  16  17  18  19  20  21  22  23  24  25  26  27  
[Printable]
142
FTUS41 KPHI 220700 AAA
TAFPNE
TAF AMD
KPNE 220709Z 2207/2306 03012KT 6SM -RA BKN015
     FM221100 03012KT 4SM -RA BR SCT007 OVC015
     FM221500 03012G20KT 4SM RA BR OVC012
     FM222100 35016G25KT 6SM -RA BKN020
     FM230200 35017KT P6SM OVC025=


U.S. Dept. of Commerce
NOAA National Weather Service
1325 East West Highway
Silver Spring, MD 20910
E-mail: w-nws.webmaster@noaa.gov
Page last modified: May 16, 2007
NATIONAL WEATHER SERVICE: for Safety, for Work, for Fun - FOR LIFE